Time;durP1;ratioP1;P1;durP2;ratioP2;P2;SDS_P1;SDS_P2;PMS_P1;PMS_P2;Temp;Humidity;BMP_temperature;BMP_pressure;BME280_temperature;BME280_humidity;BME280_pressure;Samples;Min_cycle;Max_cycle;Signal;HPM_P1;HPM_P2
2023/10/13 00:03:25;;;;;;;;;;;20.10;60.40;;;;;;217358;1292;22557;-60
2023/10/13 00:08:29;;;;;;;;;;;20.00;60.40;;;;;;217446;1294;25414;-60
2023/10/13 00:13:42;;;;;;;;;;;20.00;60.50;;;;;;217669;1285;25500;-61
2023/10/13 00:18:45;;;;;;;;;;;20.00;60.40;;;;;;217427;1298;23952;-61
2023/10/13 00:23:53;;;;;;;;;;;20.00;60.90;;;;;;217561;1295;24001;-62
2023/10/13 00:34:32;;;;;;;;;;;20.10;60.40;;;;;;217391;1296;22550;-60
2023/10/13 00:39:36;;;;;;;;;;;20.10;60.30;;;;;;217559;1298;22900;-61
2023/10/13 00:44:48;;;;;;;;;;;20.00;60.30;;;;;;217441;1294;22588;-60
2023/10/13 00:49:51;;;;;;;;;;;20.00;60.70;;;;;;217318;1298;22777;-62
2023/10/13 00:54:54;;;;;;;;;;;20.00;60.40;;;;;;217376;1298;22661;-61
2023/10/13 00:59:57;;;;;;;;;;;20.00;60.40;;;;;;217392;1285;24257;-60
2023/10/13 01:05:02;;;;;;;;;;;20.00;60.40;;;;;;217360;1298;22736;-64
2023/10/13 01:10:13;;;;;;;;;;;20.00;60.40;;;;;;217411;1291;24782;-61
2023/10/13 01:15:20;;;;;;;;;;;20.00;60.30;;;;;;217571;1295;26560;-62
2023/10/13 01:20:26;;;;;;;;;;;20.00;60.30;;;;;;217528;1294;22529;-61
2023/10/13 01:25:28;;;;;;;;;;;20.00;60.80;;;;;;217382;1298;24274;-63
2023/10/13 01:30:31;;;;;;;;;;;20.00;60.40;;;;;;217519;1285;25369;-63
2023/10/13 01:35:42;;;;;;;;;;;20.00;60.50;;;;;;217414;1292;23967;-61
2023/10/13 01:40:51;;;;;;;;;;;20.00;60.40;;;;;;217538;1292;25262;-61
2023/10/13 01:45:54;;;;;;;;;;;20.00;60.40;;;;;;217296;1298;22563;-61
2023/10/13 01:50:59;;;;;;;;;;;20.00;60.30;;;;;;217315;1289;24071;-63
2023/10/13 01:56:07;;;;;;;;;;;20.00;61.00;;;;;;217377;1297;25661;-62
2023/10/13 02:01:10;;;;;;;;;;;20.00;60.40;;;;;;217397;1298;22718;-62
2023/10/13 02:06:17;;;;;;;;;;;20.00;60.30;;;;;;217416;1290;22628;-61
2023/10/13 02:11:20;;;;;;;;;;;20.00;60.30;;;;;;217711;1292;22566;-60
2023/10/13 02:16:25;;;;;;;;;;;20.00;61.10;;;;;;217440;1291;23911;-60
2023/10/13 02:21:31;;;;;;;;;;;20.00;60.30;;;;;;217288;1294;22543;-59
2023/10/13 02:26:38;;;;;;;;;;;20.00;60.40;;;;;;217357;1292;25515;-61
2023/10/13 02:31:42;;;;;;;;;;;20.00;60.60;;;;;;217587;1295;22625;-62
2023/10/13 02:36:48;;;;;;;;;;;20.00;60.30;;;;;;217482;1294;22632;-62
2023/10/13 02:41:51;;;;;;;;;;;20.00;60.40;;;;;;217395;1291;22801;-61
2023/10/13 02:46:55;;;;;;;;;;;20.00;60.50;;;;;;217566;1295;22563;-60
2023/10/13 02:52:03;;;;;;;;;;;19.90;60.40;;;;;;217481;1291;22533;-63
2023/10/13 02:57:07;;;;;;;;;;;20.00;60.80;;;;;;217570;1297;24198;-61
2023/10/13 03:07:28;;;;;;;;;;;19.90;60.40;;;;;;217238;1294;278024;-61
2023/10/13 03:12:33;;;;;;;;;;;20.00;60.20;;;;;;217599;1294;24434;-63
2023/10/13 03:17:36;;;;;;;;;;;20.00;60.50;;;;;;217459;1298;22540;-62
2023/10/13 03:22:39;;;;;;;;;;;20.00;60.70;;;;;;217585;1291;22546;-61
2023/10/13 03:32:56;;;;;;;;;;;20.00;60.40;;;;;;217401;1297;22572;-60
2023/10/13 03:37:59;;;;;;;;;;;19.90;60.50;;;;;;217659;1295;22533;-61
2023/10/13 03:43:04;;;;;;;;;;;20.00;60.80;;;;;;217544;1285;23237;-61
2023/10/13 03:48:09;;;;;;;;;;;19.90;60.40;;;;;;217267;1297;23696;-65
2023/10/13 03:53:13;;;;;;;;;;;20.00;60.50;;;;;;217358;1297;23193;-64
2023/10/13 03:58:17;;;;;;;;;;;19.90;60.30;;;;;;217770;1294;22608;-64
2023/10/13 04:03:32;;;;;;;;;;;19.90;60.40;;;;;;217450;1291;25307;-63
2023/10/13 04:29:45;;;;;;;;;;;19.90;60.60;;;;;;217827;1291;23934;-65
2023/10/13 04:34:45;;;;;;;;;;;19.90;60.30;;;;;;217467;1297;24298;-65
2023/10/13 04:39:56;;;;;;;;;;;19.90;60.30;;;;;;217534;1298;22530;-64
2023/10/13 04:45:15;;;;;;;;;;;20.00;60.30;;;;;;217418;1298;24260;-65
2023/10/13 04:50:27;;;;;;;;;;;19.90;60.30;;;;;;217661;1297;22549;-64
2023/10/13 04:55:48;;;;;;;;;;;19.90;60.60;;;;;;217568;1298;22526;-64
2023/10/13 06:31:52;;;;;;;;;;;19.90;60.50;;;;;;217164;1296;22568;-62
2023/10/13 06:36:54;;;;;;;;;;;19.90;60.50;;;;;;217154;1290;24896;-63
2023/10/13 06:41:57;;;;;;;;;;;19.80;60.50;;;;;;217216;1291;22567;-61
2023/10/13 06:47:03;;;;;;;;;;;19.90;60.50;;;;;;217591;1291;22530;-61
2023/10/13 06:52:06;;;;;;;;;;;19.90;60.30;;;;;;217383;1298;24419;-60
2023/10/13 06:57:20;;;;;;;;;;;20.00;60.30;;;;;;217385;1285;22540;-62
2023/10/13 07:02:23;;;;;;;;;;;20.10;60.30;;;;;;217512;1295;22841;-62
2023/10/13 07:07:30;;;;;;;;;;;20.10;60.30;;;;;;217295;1298;24330;-61
2023/10/13 07:12:33;;;;;;;;;;;20.20;60.10;;;;;;217302;1292;22529;-61
2023/10/13 07:17:39;;;;;;;;;;;20.20;60.10;;;;;;217379;1285;22551;-64
2023/10/13 07:22:54;;;;;;;;;;;20.20;60.00;;;;;;217527;1294;22605;-64
2023/10/13 07:27:57;;;;;;;;;;;20.30;60.00;;;;;;217501;1294;23069;-63
2023/10/13 07:33:00;;;;;;;;;;;20.30;59.90;;;;;;217542;1296;22731;-64
2023/10/13 07:38:07;;;;;;;;;;;20.30;59.90;;;;;;217419;1294;24248;-63
2023/10/13 07:43:10;;;;;;;;;;;20.30;59.70;;;;;;217595;1295;22575;-64
2023/10/13 07:48:21;;;;;;;;;;;20.40;59.60;;;;;;217438;1298;24537;-65
2023/10/13 07:53:23;;;;;;;;;;;20.50;59.50;;;;;;217582;1290;22537;-64
2023/10/13 07:58:26;;;;;;;;;;;20.50;59.80;;;;;;217437;1297;26762;-64
2023/10/13 08:03:37;;;;;;;;;;;20.50;59.40;;;;;;217479;1298;22546;-64
2023/10/13 08:08:40;;;;;;;;;;;20.50;59.60;;;;;;217399;1294;22530;-65
2023/10/13 08:13:46;;;;;;;;;;;20.50;59.60;;;;;;217615;1291;22551;-63
2023/10/13 08:19:08;;;;;;;;;;;20.50;59.50;;;;;;217262;1289;23962;-63
2023/10/13 08:24:15;;;;;;;;;;;20.60;59.50;;;;;;217347;1298;23578;-64
2023/10/13 08:34:29;;;;;;;;;;;20.70;59.60;;;;;;217309;1298;22545;-64
2023/10/13 08:44:54;;;;;;;;;;;20.70;59.60;;;;;;217303;1297;22538;-64
2023/10/13 08:50:10;;;;;;;;;;;20.70;59.50;;;;;;217586;1295;22550;-63
2023/10/13 09:06:06;;;;;;;;;;;20.80;59.50;;;;;;217410;1294;22546;-63
2023/10/13 09:11:12;;;;;;;;;;;20.80;59.50;;;;;;217614;1291;22621;-64
2023/10/13 09:16:51;;;;;;;;;;;20.90;59.40;;;;;;217375;1298;22650;-64
2023/10/13 09:21:47;;;;;;;;;;;20.90;59.40;;;;;;217646;1296;22618;-64
2023/10/13 09:26:56;;;;;;;;;;;20.90;59.50;;;;;;217493;1285;25316;-66
2023/10/13 09:32:00;;;;;;;;;;;20.90;59.40;;;;;;217589;1294;24794;-67
2023/10/13 09:37:04;;;;;;;;;;;21.00;59.60;;;;;;217670;1294;24303;-64
2023/10/13 09:42:10;;;;;;;;;;;21.00;59.50;;;;;;217743;1294;22576;-62
2023/10/13 09:47:17;;;;;;;;;;;21.00;59.40;;;;;;217609;1298;22663;-64
2023/10/13 09:52:24;;;;;;;;;;;21.00;59.50;;;;;;217521;1292;23419;-65
2023/10/13 09:57:34;;;;;;;;;;;20.90;59.40;;;;;;217468;1294;22566;-64
2023/10/13 10:02:43;;;;;;;;;;;20.90;59.80;;;;;;217451;1291;22524;-64
2023/10/13 10:07:54;;;;;;;;;;;21.00;59.50;;;;;;217730;1295;22547;-64
2023/10/13 10:13:05;;;;;;;;;;;21.00;59.50;;;;;;217301;1288;22611;-64
2023/10/13 10:18:19;;;;;;;;;;;21.00;59.80;;;;;;217416;1292;22661;-65
2023/10/13 10:23:27;;;;;;;;;;;21.00;59.50;;;;;;217435;1298;22534;-64
2023/10/13 10:28:35;;;;;;;;;;;21.00;59.50;;;;;;217502;1292;22545;-63
2023/10/13 10:33:41;;;;;;;;;;;21.10;59.70;;;;;;217531;1294;22807;-64
2023/10/13 10:38:58;;;;;;;;;;;21.20;59.30;;;;;;217410;1286;22562;-64
2023/10/13 10:44:08;;;;;;;;;;;21.20;59.30;;;;;;217794;1294;22559;-65
2023/10/13 10:49:11;;;;;;;;;;;21.30;59.40;;;;;;217459;1296;22553;-64
2023/10/13 10:54:18;;;;;;;;;;;21.40;58.90;;;;;;217515;1295;22628;-64
2023/10/13 10:59:25;;;;;;;;;;;21.50;58.80;;;;;;217350;1291;22685;-64
2023/10/13 11:04:33;;;;;;;;;;;21.60;58.70;;;;;;217149;1298;24266;-64
2023/10/13 11:14:50;;;;;;;;;;;21.70;58.90;;;;;;217398;1297;22527;-64
2023/10/13 11:19:52;;;;;;;;;;;21.70;58.40;;;;;;217621;1285;22533;-64
2023/10/13 11:24:59;;;;;;;;;;;21.70;58.60;;;;;;217440;1283;22621;-65
2023/10/13 11:30:05;;;;;;;;;;;21.70;58.60;;;;;;217503;1294;24432;-64
2023/10/13 11:35:20;;;;;;;;;;;21.70;58.50;;;;;;217658;1285;24305;-64
2023/10/13 11:46:12;;;;;;;;;;;21.70;58.60;;;;;;217564;1297;23654;-64
2023/10/13 11:51:31;;;;;;;;;;;21.70;58.50;;;;;;217378;1298;24356;-64
2023/10/13 11:56:34;;;;;;;;;;;21.60;58.70;;;;;;217511;1285;23968;-63
2023/10/13 12:12:19;;;;;;;;;;;21.60;59.20;;;;;;217420;1288;22611;-64
2023/10/13 12:17:28;;;;;;;;;;;21.60;59.00;;;;;;217417;1296;22666;-66
2023/10/13 12:22:42;;;;;;;;;;;21.50;59.00;;;;;;217522;1292;22537;-67
2023/10/13 12:27:56;;;;;;;;;;;21.50;58.90;;;;;;217479;1295;23289;-65
2023/10/13 12:33:08;;;;;;;;;;;21.50;59.00;;;;;;217515;1298;22534;-64
2023/10/13 12:38:36;;;;;;;;;;;21.50;59.00;;;;;;217500;1297;24439;-64
2023/10/13 12:54:35;;;;;;;;;;;21.50;59.00;;;;;;217552;1298;23037;-64
2023/10/13 12:59:38;;;;;;;;;;;21.50;59.10;;;;;;217448;1292;22674;-64
2023/10/13 13:04:44;;;;;;;;;;;21.40;59.20;;;;;;217413;1293;22537;-64
2023/10/13 13:09:47;;;;;;;;;;;21.40;59.30;;;;;;217711;1295;22658;-60
2023/10/13 13:14:54;;;;;;;;;;;21.40;59.30;;;;;;217530;1282;22544;-64
2023/10/13 13:19:57;;;;;;;;;;;21.50;59.20;;;;;;217399;1297;22661;-61
2023/10/13 13:25:00;;;;;;;;;;;21.50;59.30;;;;;;217392;1295;22534;-62
2023/10/13 13:30:12;;;;;;;;;;;21.40;59.40;;;;;;217522;1298;24247;-61
2023/10/13 13:35:16;;;;;;;;;;;21.40;59.50;;;;;;217471;1297;24114;-61
2023/10/13 13:40:22;;;;;;;;;;;21.40;59.50;;;;;;217416;1289;24288;-64
2023/10/13 13:45:27;;;;;;;;;;;21.30;59.50;;;;;;217635;1294;22533;-60
2023/10/13 13:50:32;;;;;;;;;;;21.30;59.50;;;;;;217458;1298;22683;-61
2023/10/13 13:55:35;;;;;;;;;;;21.30;59.60;;;;;;217419;1291;22527;-61
2023/10/13 14:00:40;;;;;;;;;;;21.30;59.90;;;;;;217636;1295;25049;-60
2023/10/13 14:05:43;;;;;;;;;;;21.30;59.60;;;;;;217567;1298;22727;-61
2023/10/13 14:16:16;;;;;;;;;;;21.30;60.00;;;;;;217430;1298;22596;-62
2023/10/13 14:21:19;;;;;;;;;;;21.30;59.70;;;;;;217416;1294;24299;-66
2023/10/13 14:26:25;;;;;;;;;;;21.30;59.70;;;;;;217566;1298;25462;-64
2023/10/13 14:31:28;;;;;;;;;;;21.30;59.70;;;;;;217386;1296;22661;-64
2023/10/13 14:36:34;;;;;;;;;;;21.30;59.70;;;;;;217563;1291;23303;-65
2023/10/13 14:41:40;;;;;;;;;;;21.30;59.70;;;;;;217288;1291;22540;-65
2023/10/13 14:46:43;;;;;;;;;;;21.30;60.00;;;;;;217533;1292;23959;-64
2023/10/13 14:51:46;;;;;;;;;;;21.30;59.70;;;;;;217338;1298;22537;-64
2023/10/13 14:56:48;;;;;;;;;;;21.20;59.80;;;;;;217505;1298;22549;-64
2023/10/13 15:01:51;;;;;;;;;;;21.20;59.80;;;;;;217310;1294;22520;-66
2023/10/13 15:06:55;;;;;;;;;;;21.20;59.80;;;;;;216441;1291;1159304;-64
2023/10/13 15:11:57;;;;;;;;;;;21.20;59.90;;;;;;217559;1297;22840;-64
2023/10/13 15:17:00;;;;;;;;;;;21.20;59.80;;;;;;217532;1298;22606;-65
2023/10/13 15:22:06;;;;;;;;;;;21.20;59.80;;;;;;217640;1296;22534;-63
2023/10/13 15:27:08;;;;;;;;;;;21.20;59.90;;;;;;217439;1298;22544;-66
2023/10/13 15:37:33;;;;;;;;;;;21.20;60.00;;;;;;217382;1295;23218;-65
2023/10/13 15:42:41;;;;;;;;;;;21.20;60.10;;;;;;217335;1297;22543;-67
2023/10/13 15:47:45;;;;;;;;;;;21.10;60.10;;;;;;217552;1294;22535;-64
2023/10/13 15:53:12;;;;;;;;;;;21.10;60.10;;;;;;217430;1291;22529;-65
2023/10/13 15:58:16;;;;;;;;;;;21.10;60.10;;;;;;217513;1291;25535;-65
2023/10/13 16:03:18;;;;;;;;;;;21.10;60.10;;;;;;217620;1295;24251;-64
2023/10/13 16:08:21;;;;;;;;;;;21.10;60.10;;;;;;217520;1298;22550;-65
2023/10/13 16:13:24;;;;;;;;;;;21.20;60.60;;;;;;217447;1298;23307;-65
2023/10/13 16:18:28;;;;;;;;;;;21.10;60.20;;;;;;217300;1295;22657;-64
2023/10/13 16:23:31;;;;;;;;;;;21.10;60.20;;;;;;217339;1298;24263;-65
2023/10/13 16:28:38;;;;;;;;;;;21.10;60.30;;;;;;217128;1298;25561;-65
2023/10/13 16:33:41;;;;;;;;;;;21.10;60.30;;;;;;217465;1298;22606;-65
2023/10/13 16:38:45;;;;;;;;;;;21.10;60.30;;;;;;217246;1298;22530;-64
2023/10/13 16:43:48;;;;;;;;;;;21.10;60.50;;;;;;217361;1298;22943;-64
2023/10/13 16:48:51;;;;;;;;;;;21.10;60.60;;;;;;217337;1297;23529;-64
2023/10/13 16:53:54;;;;;;;;;;;21.10;60.60;;;;;;217232;1297;24249;-64
2023/10/13 16:58:58;;;;;;;;;;;21.10;60.60;;;;;;217342;1298;24282;-65
2023/10/13 17:04:00;;;;;;;;;;;21.10;60.60;;;;;;217427;1297;24351;-67
2023/10/13 17:09:04;;;;;;;;;;;21.00;60.70;;;;;;217658;1298;24316;-66
2023/10/13 17:14:07;;;;;;;;;;;21.10;60.80;;;;;;217592;1295;22592;-64
2023/10/13 17:19:10;;;;;;;;;;;21.00;60.80;;;;;;217500;1297;22534;-65
2023/10/13 17:24:13;;;;;;;;;;;21.00;60.80;;;;;;217472;1298;22564;-65
2023/10/13 17:29:16;;;;;;;;;;;21.00;60.80;;;;;;217172;1298;22657;-64
2023/10/13 17:34:19;;;;;;;;;;;21.00;60.90;;;;;;217628;1292;22539;-65
2023/10/13 17:39:24;;;;;;;;;;;21.00;60.90;;;;;;217375;1295;24320;-66
2023/10/13 17:44:27;;;;;;;;;;;21.00;61.00;;;;;;217528;1285;23501;-64
2023/10/13 17:49:29;;;;;;;;;;;21.00;60.90;;;;;;217698;1279;24237;-66
2023/10/13 17:54:32;;;;;;;;;;;21.00;60.90;;;;;;217602;1291;22623;-66
2023/10/13 17:59:38;;;;;;;;;;;21.00;60.90;;;;;;217642;1298;22534;-64
2023/10/13 18:04:41;;;;;;;;;;;21.00;61.00;;;;;;217363;1295;24222;-65
2023/10/13 18:09:44;;;;;;;;;;;21.00;60.90;;;;;;217425;1283;23912;-65
2023/10/13 18:14:48;;;;;;;;;;;21.00;61.00;;;;;;217328;1295;22544;-65
2023/10/13 18:19:51;;;;;;;;;;;21.00;61.00;;;;;;217494;1298;22589;-66
2023/10/13 18:24:55;;;;;;;;;;;21.00;61.00;;;;;;217730;1298;24043;-64
2023/10/13 18:29:58;;;;;;;;;;;21.00;61.10;;;;;;217443;1291;25339;-65
2023/10/13 18:35:01;;;;;;;;;;;21.00;61.10;;;;;;217615;1298;23738;-66
2023/10/13 18:40:09;;;;;;;;;;;21.00;61.00;;;;;;217538;1295;22585;-63
2023/10/13 18:45:13;;;;;;;;;;;21.00;61.30;;;;;;217656;1292;24314;-65
2023/10/13 18:50:16;;;;;;;;;;;21.00;60.90;;;;;;217332;1292;25405;-64
2023/10/13 18:55:20;;;;;;;;;;;21.10;61.00;;;;;;217405;1298;22529;-63
2023/10/13 19:00:23;;;;;;;;;;;21.00;61.40;;;;;;217637;1298;25416;-65
2023/10/13 19:05:27;;;;;;;;;;;21.00;60.90;;;;;;217661;1295;25402;-64
2023/10/13 19:10:31;;;;;;;;;;;21.00;61.00;;;;;;217535;1296;22580;-64
2023/10/13 19:15:36;;;;;;;;;;;21.10;60.90;;;;;;217563;1297;22624;-64
2023/10/13 19:20:40;;;;;;;;;;;21.10;61.20;;;;;;217583;1297;22556;-64
2023/10/13 19:25:44;;;;;;;;;;;21.00;60.80;;;;;;217593;1298;25535;-65
2023/10/13 19:30:48;;;;;;;;;;;21.10;60.80;;;;;;217727;1298;22547;-66
2023/10/13 19:35:51;;;;;;;;;;;21.00;61.00;;;;;;217474;1297;22820;-63
2023/10/13 19:40:56;;;;;;;;;;;21.00;60.90;;;;;;217587;1283;24293;-65
2023/10/13 19:46:04;;;;;;;;;;;21.10;60.60;;;;;;217559;1291;23912;-67
2023/10/13 19:51:11;;;;;;;;;;;21.00;60.70;;;;;;217398;1292;22730;-64
2023/10/13 19:56:22;;;;;;;;;;;21.00;60.70;;;;;;217528;1298;24243;-65
2023/10/13 20:01:26;;;;;;;;;;;21.00;60.80;;;;;;217508;1291;24047;-65
2023/10/13 20:06:33;;;;;;;;;;;21.00;60.80;;;;;;217486;1291;22541;-64
2023/10/13 20:11:37;;;;;;;;;;;21.00;61.00;;;;;;217495;1294;22687;-64
2023/10/13 20:16:40;;;;;;;;;;;21.00;60.70;;;;;;217530;1296;24273;-67
2023/10/13 20:21:46;;;;;;;;;;;21.00;60.70;;;;;;217566;1290;25409;-63
2023/10/13 20:26:51;;;;;;;;;;;20.90;60.90;;;;;;217509;1286;24286;-64
2023/10/13 20:31:56;;;;;;;;;;;20.90;60.90;;;;;;217570;1295;22535;-65
2023/10/13 20:36:59;;;;;;;;;;;21.00;60.80;;;;;;217149;1292;22550;-64
2023/10/13 20:42:04;;;;;;;;;;;21.00;60.80;;;;;;217322;1292;22640;-64
2023/10/13 20:47:10;;;;;;;;;;;21.00;60.70;;;;;;217472;1292;22541;-63
2023/10/13 20:52:15;;;;;;;;;;;20.90;60.80;;;;;;217383;1295;22651;-65
2023/10/13 20:57:20;;;;;;;;;;;21.00;60.80;;;;;;217420;1291;25278;-64
2023/10/13 21:02:23;;;;;;;;;;;20.90;61.00;;;;;;217521;1298;22546;-64
2023/10/13 21:07:26;;;;;;;;;;;20.90;61.20;;;;;;216224;1302;24701;-63
2023/10/13 21:12:29;;;;;;;;;;;20.90;61.50;;;;;;216386;1300;22734;-64
2023/10/13 21:17:31;;;;;;;;;;;20.90;61.50;;;;;;216105;1298;22567;-60
2023/10/13 21:22:36;;;;;;;;;;;20.90;60.90;;;;;;216408;1292;22551;-62
2023/10/13 21:27:41;;;;;;;;;;;20.90;60.90;;;;;;217382;1294;23935;-63
2023/10/13 21:32:48;;;;;;;;;;;20.90;60.90;;;;;;217309;1286;22745;-60
2023/10/13 21:37:51;;;;;;;;;;;20.90;60.80;;;;;;217559;1298;24377;-61
2023/10/13 21:42:55;;;;;;;;;;;20.90;60.80;;;;;;217204;1288;22537;-61
2023/10/13 21:48:02;;;;;;;;;;;20.90;60.60;;;;;;217561;1291;24509;-61
2023/10/13 21:53:07;;;;;;;;;;;20.90;60.90;;;;;;217511;1294;22527;-61
2023/10/13 21:58:09;;;;;;;;;;;20.90;60.90;;;;;;217659;1298;22711;-63
2023/10/13 22:03:13;;;;;;;;;;;20.90;60.90;;;;;;217449;1296;22545;-62
2023/10/13 22:08:17;;;;;;;;;;;20.90;60.90;;;;;;217517;1292;24228;-65
2023/10/13 22:13:20;;;;;;;;;;;20.90;60.90;;;;;;217483;1292;25946;-62
2023/10/13 22:18:23;;;;;;;;;;;20.90;60.70;;;;;;217281;1294;25944;-62
2023/10/13 22:23:25;;;;;;;;;;;20.90;60.60;;;;;;217531;1291;22901;-62
2023/10/13 22:28:28;;;;;;;;;;;20.90;60.80;;;;;;217276;1288;25622;-63
2023/10/13 22:33:31;;;;;;;;;;;20.90;60.70;;;;;;217286;1292;22640;-61
2023/10/13 22:38:35;;;;;;;;;;;20.90;60.70;;;;;;217173;1298;22654;-60
2023/10/13 22:43:40;;;;;;;;;;;20.90;60.70;;;;;;217342;1291;24343;-61
2023/10/13 22:48:43;;;;;;;;;;;20.90;60.80;;;;;;217579;1295;22674;-61
2023/10/13 22:53:46;;;;;;;;;;;20.90;60.80;;;;;;217196;1291;22553;-61
2023/10/13 22:58:49;;;;;;;;;;;20.90;60.80;;;;;;217608;1281;22526;-63
2023/10/13 23:03:58;;;;;;;;;;;20.80;60.80;;;;;;217470;1294;22612;-61
2023/10/13 23:09:15;;;;;;;;;;;20.90;60.80;;;;;;217309;1292;23963;-61
2023/10/13 23:14:18;;;;;;;;;;;20.80;60.80;;;;;;217580;1298;22638;-63
2023/10/13 23:19:24;;;;;;;;;;;20.80;60.70;;;;;;217367;1294;24393;-62
2023/10/13 23:24:28;;;;;;;;;;;20.80;60.70;;;;;;217452;1298;24321;-61
2023/10/13 23:29:31;;;;;;;;;;;20.80;60.80;;;;;;217469;1298;22533;-62
2023/10/13 23:34:33;;;;;;;;;;;20.80;60.80;;;;;;217352;1294;22674;-62
2023/10/13 23:39:37;;;;;;;;;;;20.80;61.10;;;;;;217278;1282;23933;-62
2023/10/13 23:44:46;;;;;;;;;;;20.80;60.80;;;;;;217512;1295;22536;-61
2023/10/13 23:49:50;;;;;;;;;;;20.80;60.80;;;;;;217374;1294;22541;-61
2023/10/13 23:54:56;;;;;;;;;;;20.80;61.10;;;;;;217534;1285;22633;-61
